Time;durP1;ratioP1;P1;durP2;ratioP2;P2;SDS_P1;SDS_P2;PMS_P1;PMS_P2;Temp;Humidity;BMP_temperature;BMP_pressure;BME280_temperature;BME280_humidity;BME280_pressure;Samples;Min_cycle;Max_cycle;Signal;HPM_P1;HPM_P2
2023/04/06 00:02:58;;;;;;;37.80;20.10;;;;;;;-2.51;63.17;99055.50;436507;1252;98515;-41
2023/04/06 00:13:06;;;;;;;54.40;24.70;;;;;;;-2.81;63.27;99057.48;436382;1253;111941;-40
2023/04/06 00:23:13;;;;;;;54.20;26.60;;;;;;;-3.07;63.81;99053.62;436297;1253;108516;-41
2023/04/06 00:33:21;;;;;;;58.60;27.30;;;;;;;-3.26;64.08;99047.11;436518;1252;98810;-41
2023/04/06 00:43:28;;;;;;;51.00;27.90;;;;;;;-3.49;64.27;99044.39;436172;1253;107585;-40
2023/04/06 00:53:35;;;;;;;51.60;26.10;;;;;;;-3.58;64.60;99043.67;436618;1264;99222;-41
2023/04/06 01:13:48;;;;;;;50.20;25.80;;;;;;;-3.37;65.23;99037.33;436934;1253;107591;-41
2023/04/06 01:23:54;;;;;;;64.40;32.10;;;;;;;-3.29;65.62;99032.55;435976;1253;99247;-41
2023/04/06 01:34:02;;;;;;;96.50;43.00;;;;;;;-3.40;65.75;99025.59;436680;1254;111592;-40
2023/04/06 01:44:09;;;;;;;96.20;43.10;;;;;;;-3.63;66.03;99027.02;435782;1253;108215;-40
2023/04/06 01:54:16;;;;;;;98.10;41.00;;;;;;;-3.84;66.33;99027.40;435898;1253;99282;-40
2023/04/06 02:04:23;;;;;;;86.90;38.80;;;;;;;-4.03;66.64;99027.00;435892;1253;111715;-41
2023/04/06 02:14:30;;;;;;;93.30;39.40;;;;;;;-4.23;66.69;99016.06;435898;1251;107883;-39
2023/04/06 02:24:37;;;;;;;62.40;35.10;;;;;;;-4.35;66.81;99012.91;436418;1251;99253;-40
2023/04/06 02:34:45;;;;;;;71.50;37.30;;;;;;;-4.26;66.98;99008.20;435813;1251;108906;-41
2023/04/06 02:44:52;;;;;;;91.40;43.60;;;;;;;-4.15;67.23;99007.41;435947;1251;99249;-41
2023/04/06 02:55:00;;;;;;;120.20;52.80;;;;;;;-4.11;67.51;99014.50;435826;1250;110909;-40
2023/04/06 03:05:07;;;;;;;103.70;49.00;;;;;;;-4.15;67.83;99008.00;435850;1253;108610;-41
2023/04/06 03:15:15;;;;;;;106.40;49.80;;;;;;;-4.39;67.61;99010.48;435746;1253;99209;-40
2023/04/06 03:25:22;;;;;;;99.20;48.40;;;;;;;-4.65;67.82;99007.59;436102;1253;110192;-41
2023/04/06 03:35:29;;;;;;;98.80;48.50;;;;;;;-4.79;68.17;99019.91;435659;1251;107265;-40
2023/04/06 03:45:36;;;;;;;112.90;53.00;;;;;;;-4.87;68.46;99018.70;435969;1251;384091;-41
2023/04/06 03:55:43;;;;;;;104.80;55.50;;;;;;;-4.83;68.45;99022.54;435899;1254;107138;-41
2023/04/06 04:05:51;;;;;;;80.00;47.70;;;;;;;-4.65;68.89;99023.06;435890;1253;99343;-41
2023/04/06 04:15:58;;;;;;;81.30;44.90;;;;;;;-4.41;68.91;99023.05;435973;1263;111215;-40
2023/04/06 04:26:06;;;;;;;84.10;46.00;;;;;;;-4.32;68.91;99027.77;435872;1248;109582;-42
2023/04/06 04:36:13;;;;;;;151.70;73.40;;;;;;;-4.19;68.98;99029.83;436113;1253;97954;-42
2023/04/06 04:46:20;;;;;;;155.90;71.80;;;;;;;-4.08;69.21;99022.36;435964;1254;108032;-41
2023/04/06 05:06:34;;;;;;;209.70;92.70;;;;;;;-3.54;69.32;99027.60;435879;1261;112169;-41
2023/04/06 05:16:42;;;;;;;190.90;84.70;;;;;;;-2.89;69.66;99025.40;435632;1252;107925;-41
2023/04/06 05:26:49;;;;;;;179.70;82.90;;;;;;;-2.05;69.58;99018.23;435799;1261;97994;-40
2023/04/06 05:36:56;;;;;;;211.40;93.70;;;;;;;-1.39;68.96;99017.91;435804;1250;107233;-41
2023/04/06 05:47:03;;;;;;;112.70;56.90;;;;;;;-1.22;68.35;99016.41;435653;1255;99227;-41
2023/04/06 05:57:11;;;;;;;137.00;64.90;;;;;;;-0.99;68.49;99016.05;436043;1248;113020;-40
2023/04/06 06:07:19;;;;;;;158.60;75.10;;;;;;;-0.57;68.32;99016.16;436091;1251;109412;-42
2023/04/06 06:17:26;;;;;;;150.20;73.60;;;;;;;-0.04;68.42;99014.69;436109;1253;98915;-41
2023/04/06 06:27:33;;;;;;;119.20;60.10;;;;;;;0.56;67.92;99010.75;436078;1251;110620;-41
2023/04/06 06:37:41;;;;;;;116.70;55.50;;;;;;;0.60;67.55;99017.27;436061;1248;109400;-40
2023/04/06 06:57:55;;;;;;;108.80;44.60;;;;;;;0.54;67.29;99011.48;436239;1253;111251;-40
2023/04/06 07:08:02;;;;;;;68.50;33.30;;;;;;;0.43;67.22;99015.36;435953;1254;108546;-41
2023/04/06 07:18:09;;;;;;;55.50;29.30;;;;;;;0.35;67.12;99022.20;436113;1253;99251;-40
2023/04/06 07:28:16;;;;;;;43.50;24.80;;;;;;;0.47;67.04;99025.31;436137;1252;110708;-41
2023/04/06 07:38:24;;;;;;;36.80;17.50;;;;;;;0.97;67.29;99019.80;435985;1249;108164;-41
2023/04/06 07:48:31;;;;;;;41.70;20.60;;;;;;;1.31;67.07;99019.62;436073;1249;99215;-41
2023/04/06 07:58:39;;;;;;;36.10;19.10;;;;;;;1.45;66.65;99019.55;435971;1253;111025;-40
2023/04/06 08:08:46;;;;;;;35.30;17.60;;;;;;;1.53;65.76;99025.27;435999;1251;108522;-41
2023/04/06 08:18:53;;;;;;;27.80;15.00;;;;;;;1.78;65.44;99020.45;436020;1253;99319;-42
2023/04/06 08:39:07;;;;;;;20.30;10.40;;;;;;;2.22;63.28;99006.49;435975;1250;99219;-40
2023/04/06 08:49:15;;;;;;;25.50;13.10;;;;;;;2.29;62.70;98996.53;436081;1248;110790;-41
2023/04/06 08:59:22;;;;;;;48.60;19.10;;;;;;;2.47;62.25;98986.20;436162;1254;107673;-41
2023/04/06 09:09:29;;;;;;;38.10;15.00;;;;;;;2.76;60.63;98974.38;436050;1253;99215;-40
2023/04/06 09:19:46;;;;;;;41.50;8.90;;;;;;;3.00;58.92;98966.66;436058;1253;99233;-40
2023/04/06 09:30:04;;;;;;;10.70;7.60;;;;;;;3.46;58.55;98956.67;436479;1254;110395;-42
2023/04/06 09:40:09;;;;;;;15.90;9.50;;;;;;;3.92;57.82;98952.56;436112;1262;106719;-41
2023/04/06 09:50:17;;;;;;;19.50;8.90;;;;;;;4.07;57.29;98946.38;436101;1253;97979;-40
2023/04/06 10:00:26;;;;;;;10.90;7.70;;;;;;;4.51;57.10;98934.08;436252;1248;110587;-43
2023/04/06 10:10:33;;;;;;;14.60;7.90;;;;;;;4.04;55.64;98938.77;436056;1254;107921;-42
2023/04/06 10:20:40;;;;;;;18.40;10.70;;;;;;;3.92;55.52;98933.76;435963;1251;99258;-40
2023/04/06 10:30:47;;;;;;;16.00;8.70;;;;;;;3.98;55.49;98924.80;435919;1248;112203;-41
2023/04/06 10:41:04;;;;;;;34.20;16.60;;;;;;;4.14;55.51;98906.21;436074;1253;109298;-41
2023/04/06 10:51:09;;;;;;;40.10;20.70;;;;;;;4.63;54.46;98888.23;436048;1253;98332;-41
2023/04/06 11:01:15;;;;;;;18.70;11.20;;;;;;;4.45;54.11;98886.27;436051;1253;97991;-40
2023/04/06 11:11:26;;;;;;;20.30;10.20;;;;;;;4.42;54.30;98883.81;436111;1250;107930;-40
2023/04/06 11:21:35;;;;;;;17.20;10.10;;;;;;;4.24;54.03;98878.41;435923;1253;99212;-41
2023/04/06 11:31:41;;;;;;;17.50;10.40;;;;;;;4.08;53.96;98873.13;435969;1253;106977;-42
2023/04/06 11:41:48;;;;;;;16.60;10.90;;;;;;;4.09;54.22;98872.13;435926;1250;99246;-41
2023/04/06 11:51:56;;;;;;;13.60;9.10;;;;;;;4.11;54.49;98867.37;436027;1253;111113;-40
2023/04/06 12:02:04;;;;;;;23.50;9.30;;;;;;;3.98;54.73;98860.16;436059;1253;109563;-41
2023/04/06 12:12:11;;;;;;;13.50;9.20;;;;;;;3.91;54.90;98853.81;436163;1253;98255;-44
2023/04/06 12:22:20;;;;;;;19.20;10.20;;;;;;;3.72;55.47;98853.73;435988;1253;111341;-40
2023/04/06 12:42:33;;;;;;;18.80;10.40;;;;;;;3.73;56.84;98836.63;435956;1250;99753;-42
2023/04/06 12:52:41;;;;;;;17.30;9.80;;;;;;;3.56;57.66;98831.95;435914;1253;112032;-41
2023/04/06 13:12:55;;;;;;;14.30;8.30;;;;;;;3.25;58.93;98819.09;435909;1253;99139;-40
2023/04/06 13:23:03;;;;;;;17.40;6.90;;;;;;;3.19;59.36;98809.88;435964;1251;112744;-41
2023/04/06 13:33:10;;;;;;;16.20;9.50;;;;;;;3.05;60.09;98803.40;435757;1253;108196;-40
2023/04/06 13:53:24;;;;;;;17.20;8.00;;;;;;;2.69;62.35;98783.73;435840;1251;110228;-41
2023/04/06 14:03:31;;;;;;;18.90;8.50;;;;;;;2.51;63.45;98784.71;435735;1248;107361;-40
2023/04/06 14:13:39;;;;;;;19.60;9.30;;;;;;;2.37;64.42;98787.62;435771;1252;98835;-40
2023/04/06 14:23:45;;;;;;;13.20;7.60;;;;;;;2.34;65.29;98782.54;435957;1248;111833;-41
2023/04/06 14:33:53;;;;;;;19.70;11.50;;;;;;;2.21;66.41;98778.33;435805;1251;107325;-41
2023/04/06 14:44:02;;;;;;;27.80;13.90;;;;;;;1.99;67.17;98776.79;436084;1253;99192;-41
2023/04/06 14:54:09;;;;;;;21.20;12.30;;;;;;;1.74;68.08;98775.66;435836;1250;112013;-41
2023/04/06 15:14:22;;;;;;;16.20;10.30;;;;;;;1.55;70.27;98775.57;436408;1247;99191;-41
2023/04/06 15:24:30;;;;;;;17.90;11.40;;;;;;;1.51;70.41;98777.42;436434;1247;111812;-41
2023/04/06 15:34:37;;;;;;;49.80;24.10;;;;;;;1.48;70.88;98772.31;436352;1252;109304;-41
2023/04/06 15:44:44;;;;;;;27.50;15.50;;;;;;;1.49;70.97;98768.27;436263;1252;427758;-40
2023/04/06 15:54:51;;;;;;;38.90;21.20;;;;;;;1.20;71.48;98760.83;436324;1252;108441;-40
2023/04/06 16:25:14;;;;;;;51.40;30.00;;;;;;;0.88;73.43;98764.62;436251;1253;107942;-40
2023/04/06 16:35:21;;;;;;;26.00;17.90;;;;;;;0.87;73.78;98763.52;436381;1248;99250;-42
2023/04/06 16:45:29;;;;;;;29.00;21.50;;;;;;;0.86;73.95;98766.15;436343;1253;108113;-40
2023/04/06 16:55:38;;;;;;;27.70;17.90;;;;;;;0.88;74.10;98775.75;436339;1251;99233;-41
2023/04/06 17:05:44;;;;;;;;;;;;;;;0.89;74.14;98778.67;436253;1249;110211;-41
2023/04/06 17:25:57;;;;;;;39.40;24.50;;;;;;;0.84;74.33;98787.21;436540;1250;99103;-41
2023/04/06 17:36:08;;;;;;;63.00;32.80;;;;;;;0.70;74.85;98795.73;436459;1253;106875;-41
2023/04/06 17:46:15;;;;;;;86.80;47.70;;;;;;;0.59;75.08;98801.92;436507;1252;98630;-41
2023/04/06 17:56:23;;;;;;;53.90;31.40;;;;;;;0.56;75.28;98803.93;436409;1252;111459;-41
2023/04/06 18:16:37;;;;;;;46.20;26.60;;;;;;;0.62;75.74;98799.34;436404;1252;99326;-40
2023/04/06 18:26:44;;;;;;;29.90;19.80;;;;;;;0.61;76.06;98800.29;436387;1253;108844;-40
2023/04/06 18:36:50;;;;;;;26.90;18.80;;;;;;;0.61;76.46;98792.29;436425;1253;99240;-42
2023/04/06 18:46:58;;;;;;;37.00;22.10;;;;;;;0.58;76.98;98783.73;436320;1253;112330;-40
2023/04/06 19:07:11;;;;;;;24.90;17.10;;;;;;;0.59;78.04;98775.63;436338;1247;99336;-40
2023/04/06 19:17:18;;;;;;;26.20;17.20;;;;;;;0.57;78.97;98766.14;436400;1247;107298;-41
2023/04/06 19:27:25;;;;;;;22.70;15.90;;;;;;;0.55;79.33;98756.48;436385;1251;99237;-41
2023/04/06 19:37:32;;;;;;;25.30;14.60;;;;;;;0.54;79.67;98750.86;436303;1248;111877;-40
2023/04/06 19:47:39;;;;;;;26.80;15.60;;;;;;;0.56;80.04;98749.14;436272;1253;107301;-40
2023/04/06 19:57:46;;;;;;;24.70;15.10;;;;;;;0.57;80.22;98742.81;436362;1253;99229;-41
2023/04/06 20:07:53;;;;;;;25.80;15.90;;;;;;;0.60;80.44;98738.30;436409;1253;108818;-41
2023/04/06 20:18:01;;;;;;;23.10;16.70;;;;;;;0.61;80.61;98732.79;436337;1253;99191;-50
2023/04/06 20:28:09;;;;;;;28.70;17.20;;;;;;;0.61;80.78;98731.59;436518;1254;110613;-40
2023/04/06 20:38:16;;;;;;;28.40;18.60;;;;;;;0.61;80.75;98726.23;436343;1253;108192;-40
2023/04/06 20:48:38;;;;;;;35.30;21.10;;;;;;;0.51;81.40;98718.44;436558;1253;99682;-40
2023/04/06 20:58:45;;;;;;;27.50;18.80;;;;;;;0.46;81.71;98710.16;436233;1253;111608;-41
2023/04/06 21:08:52;;;;;;;30.80;19.10;;;;;;;0.47;81.76;98702.61;436399;1253;108310;-41
2023/04/06 21:19:00;;;;;;;26.90;18.40;;;;;;;0.51;81.73;98693.59;436377;1253;99305;-41
2023/04/06 21:29:07;;;;;;;25.20;16.40;;;;;;;0.52;82.23;98683.48;436347;1252;107309;-41
2023/04/06 21:39:14;;;;;;;27.00;16.20;;;;;;;0.55;82.18;98678.85;436131;1255;99359;-41
2023/04/06 21:49:22;;;;;;;25.60;17.70;;;;;;;0.55;82.61;98674.45;436344;1253;112875;-41
2023/04/06 21:59:29;;;;;;;20.20;15.70;;;;;;;0.56;82.61;98667.47;436295;1253;107592;-41
2023/04/06 22:09:36;;;;;;;22.80;16.60;;;;;;;0.55;82.56;98656.57;436343;1253;99488;-41
2023/04/06 22:19:42;;;;;;;24.90;17.60;;;;;;;0.55;82.82;98649.32;436378;1249;109390;-40
2023/04/06 22:29:49;;;;;;;29.30;18.20;;;;;;;0.54;83.05;98643.41;436335;1247;99240;-40
2023/04/06 22:39:56;;;;;;;29.20;18.70;;;;;;;0.55;82.97;98637.84;436472;1251;112601;-41
2023/04/06 22:50:03;;;;;;;38.70;22.70;;;;;;;0.56;83.27;98625.60;436524;1248;108163;-41
2023/04/06 23:00:12;;;;;;;37.70;22.50;;;;;;;0.50;83.37;98623.73;436381;1253;99214;-41
2023/04/06 23:10:19;;;;;;;31.40;20.10;;;;;;;0.46;83.46;98619.11;436309;1248;110302;-41
2023/04/06 23:20:26;;;;;;;33.50;19.80;;;;;;;0.46;83.79;98607.40;436215;1253;110429;-41
2023/04/06 23:40:39;;;;;;;27.60;17.20;;;;;;;0.51;84.02;98587.80;436332;1261;108477;-40
2023/04/06 23:50:46;;;;;;;29.50;17.60;;;;;;;0.52;84.18;98577.67;436410;1261;98829;-40
